sensor_id;sensor_type;location;lat;lon;timestamp;temperature;humidity
3086;DHT22;52812;48.960;9.108;2023-07-24T00:00:14;17.10;99.90
3086;DHT22;52812;48.960;9.108;2023-07-24T00:02:40;17.00;99.90
3086;DHT22;52812;48.960;9.108;2023-07-24T00:05:06;17.00;99.90
3086;DHT22;52812;48.960;9.108;2023-07-24T00:07:32;17.00;99.90
3086;DHT22;52812;48.960;9.108;2023-07-24T00:09:57;16.90;99.90
3086;DHT22;52812;48.960;9.108;2023-07-24T00:12:23;17.00;99.90
3086;DHT22;52812;48.960;9.108;2023-07-24T00:14:48;17.00;99.90
3086;DHT22;52812;48.960;9.108;2023-07-24T00:17:14;17.10;99.90
3086;DHT22;52812;48.960;9.108;2023-07-24T00:19:40;17.00;99.90
3086;DHT22;52812;48.960;9.108;2023-07-24T00:22:06;17.10;99.90
3086;DHT22;52812;48.960;9.108;2023-07-24T00:24:31;17.00;99.90
3086;DHT22;52812;48.960;9.108;2023-07-24T00:26:57;17.00;99.90
3086;DHT22;52812;48.960;9.108;2023-07-24T00:29:23;16.90;99.90
3086;DHT22;52812;48.960;9.108;2023-07-24T00:31:49;16.80;99.90
3086;DHT22;52812;48.960;9.108;2023-07-24T00:34:15;16.80;99.90
3086;DHT22;52812;48.960;9.108;2023-07-24T00:36:40;16.70;99.90
3086;DHT22;52812;48.960;9.108;2023-07-24T00:39:06;16.70;99.90
3086;DHT22;52812;48.960;9.108;2023-07-24T00:41:32;16.70;99.90
3086;DHT22;52812;48.960;9.108;2023-07-24T00:43:58;16.60;99.90
3086;DHT22;52812;48.960;9.108;2023-07-24T00:46:24;16.60;99.90
3086;DHT22;52812;48.960;9.108;2023-07-24T00:48:51;16.60;99.90
3086;DHT22;52812;48.960;9.108;2023-07-24T00:51:17;16.60;99.90
3086;DHT22;52812;48.960;9.108;2023-07-24T00:53:43;16.50;99.90
3086;DHT22;52812;48.960;9.108;2023-07-24T00:56:09;16.50;99.90
3086;DHT22;52812;48.960;9.108;2023-07-24T00:58:37;16.50;99.90
3086;DHT22;52812;48.960;9.108;2023-07-24T01:01:04;16.40;99.90
3086;DHT22;52812;48.960;9.108;2023-07-24T01:03:33;16.50;99.90
3086;DHT22;52812;48.960;9.108;2023-07-24T01:06:01;16.50;99.90
3086;DHT22;52812;48.960;9.108;2023-07-24T01:08:27;16.50;99.90
3086;DHT22;52812;48.960;9.108;2023-07-24T01:10:53;16.50;99.90
3086;DHT22;52812;48.960;9.108;2023-07-24T01:13:23;16.50;99.90
3086;DHT22;52812;48.960;9.108;2023-07-24T01:15:56;16.40;99.90
3086;DHT22;52812;48.960;9.108;2023-07-24T01:18:26;16.30;99.90
3086;DHT22;52812;48.960;9.108;2023-07-24T01:20:56;16.30;99.90
3086;DHT22;52812;48.960;9.108;2023-07-24T01:25:56;16.20;99.90
3086;DHT22;52812;48.960;9.108;2023-07-24T01:28:26;16.20;99.90
3086;DHT22;52812;48.960;9.108;2023-07-24T01:30:52;16.20;99.90
3086;DHT22;52812;48.960;9.108;2023-07-24T01:33:19;16.10;99.90
3086;DHT22;52812;48.960;9.108;2023-07-24T01:35:59;16.10;99.90
3086;DHT22;52812;48.960;9.108;2023-07-24T01:38:26;16.10;99.90
3086;DHT22;52812;48.960;9.108;2023-07-24T01:40:53;16.10;99.90
3086;DHT22;52812;48.960;9.108;2023-07-24T01:43:19;16.10;99.90
3086;DHT22;52812;48.960;9.108;2023-07-24T01:45:45;16.00;99.90
3086;DHT22;52812;48.960;9.108;2023-07-24T01:48:11;16.00;99.90
3086;DHT22;52812;48.960;9.108;2023-07-24T01:50:36;16.00;99.90
3086;DHT22;52812;48.960;9.108;2023-07-24T01:53:02;16.00;99.90
3086;DHT22;52812;48.960;9.108;2023-07-24T01:55:28;15.90;99.90
3086;DHT22;52812;48.960;9.108;2023-07-24T01:57:53;15.90;99.90
3086;DHT22;52812;48.960;9.108;2023-07-24T02:00:19;15.90;99.90
3086;DHT22;52812;48.960;9.108;2023-07-24T02:02:45;16.00;99.90
3086;DHT22;52812;48.960;9.108;2023-07-24T02:05:12;16.00;99.90
3086;DHT22;52812;48.960;9.108;2023-07-24T02:07:37;16.00;99.90
3086;DHT22;52812;48.960;9.108;2023-07-24T02:10:03;16.00;99.90
3086;DHT22;52812;48.960;9.108;2023-07-24T02:12:29;16.00;99.90
3086;DHT22;52812;48.960;9.108;2023-07-24T02:14:54;16.00;99.90
3086;DHT22;52812;48.960;9.108;2023-07-24T02:17:20;16.10;99.90
3086;DHT22;52812;48.960;9.108;2023-07-24T02:19:46;16.10;99.90
3086;DHT22;52812;48.960;9.108;2023-07-24T02:22:12;16.20;99.90
3086;DHT22;52812;48.960;9.108;2023-07-24T02:24:38;16.30;99.90
3086;DHT22;52812;48.960;9.108;2023-07-24T02:27:05;16.30;99.90
3086;DHT22;52812;48.960;9.108;2023-07-24T02:29:31;16.30;99.90
3086;DHT22;52812;48.960;9.108;2023-07-24T02:31:58;16.30;99.90
3086;DHT22;52812;48.960;9.108;2023-07-24T02:34:24;16.30;99.90
3086;DHT22;52812;48.960;9.108;2023-07-24T02:36:55;16.20;99.90
3086;DHT22;52812;48.960;9.108;2023-07-24T02:39:20;16.20;99.90
3086;DHT22;52812;48.960;9.108;2023-07-24T02:41:48;16.20;99.90
3086;DHT22;52812;48.960;9.108;2023-07-24T02:44:13;16.10;99.90
3086;DHT22;52812;48.960;9.108;2023-07-24T02:46:39;16.10;99.90
3086;DHT22;52812;48.960;9.108;2023-07-24T02:49:05;16.10;99.90
3086;DHT22;52812;48.960;9.108;2023-07-24T02:51:31;16.10;99.90
3086;DHT22;52812;48.960;9.108;2023-07-24T02:53:57;16.10;99.90
3086;DHT22;52812;48.960;9.108;2023-07-24T02:56:22;16.10;99.90
3086;DHT22;52812;48.960;9.108;2023-07-24T02:58:48;16.10;99.90
3086;DHT22;52812;48.960;9.108;2023-07-24T03:01:13;16.00;99.90
3086;DHT22;52812;48.960;9.108;2023-07-24T03:03:42;16.00;99.90
3086;DHT22;52812;48.960;9.108;2023-07-24T03:06:08;16.00;99.90
3086;DHT22;52812;48.960;9.108;2023-07-24T03:08:34;16.00;99.90
3086;DHT22;52812;48.960;9.108;2023-07-24T03:11:00;16.00;99.90
3086;DHT22;52812;48.960;9.108;2023-07-24T03:13:27;16.00;99.90
3086;DHT22;52812;48.960;9.108;2023-07-24T03:15:57;16.00;99.90
3086;DHT22;52812;48.960;9.108;2023-07-24T03:18:23;16.00;99.90
3086;DHT22;52812;48.960;9.108;2023-07-24T03:20:49;15.90;99.90
3086;DHT22;52812;48.960;9.108;2023-07-24T03:23:14;15.90;99.90
3086;DHT22;52812;48.960;9.108;2023-07-24T03:25:40;16.00;99.90
3086;DHT22;52812;48.960;9.108;2023-07-24T03:28:06;16.00;99.90
3086;DHT22;52812;48.960;9.108;2023-07-24T03:30:32;15.90;99.90
3086;DHT22;52812;48.960;9.108;2023-07-24T03:32:58;15.90;99.90
3086;DHT22;52812;48.960;9.108;2023-07-24T03:35:23;15.80;99.90
3086;DHT22;52812;48.960;9.108;2023-07-24T03:37:49;15.90;99.90
3086;DHT22;52812;48.960;9.108;2023-07-24T03:40:15;15.80;99.90
3086;DHT22;52812;48.960;9.108;2023-07-24T03:42:41;15.80;99.90
3086;DHT22;52812;48.960;9.108;2023-07-24T03:45:07;15.80;99.90
3086;DHT22;52812;48.960;9.108;2023-07-24T03:47:33;15.80;99.90
3086;DHT22;52812;48.960;9.108;2023-07-24T03:49:59;15.80;99.90
3086;DHT22;52812;48.960;9.108;2023-07-24T03:52:25;15.90;99.90
3086;DHT22;52812;48.960;9.108;2023-07-24T03:54:51;15.90;99.90
3086;DHT22;52812;48.960;9.108;2023-07-24T03:57:17;15.90;99.90
3086;DHT22;52812;48.960;9.108;2023-07-24T03:59:43;15.90;99.90
3086;DHT22;52812;48.960;9.108;2023-07-24T04:02:09;15.90;99.90
3086;DHT22;52812;48.960;9.108;2023-07-24T04:04:35;15.90;99.90
3086;DHT22;52812;48.960;9.108;2023-07-24T04:07:01;15.90;99.90
3086;DHT22;52812;48.960;9.108;2023-07-24T04:09:26;16.00;99.90
3086;DHT22;52812;48.960;9.108;2023-07-24T04:11:52;15.90;99.90
3086;DHT22;52812;48.960;9.108;2023-07-24T04:14:18;16.00;99.90
3086;DHT22;52812;48.960;9.108;2023-07-24T04:16:44;16.10;99.90
3086;DHT22;52812;48.960;9.108;2023-07-24T04:19:10;16.10;99.90
3086;DHT22;52812;48.960;9.108;2023-07-24T04:21:36;16.10;99.90
3086;DHT22;52812;48.960;9.108;2023-07-24T04:24:02;16.20;99.90
3086;DHT22;52812;48.960;9.108;2023-07-24T04:26:27;16.20;99.90
3086;DHT22;52812;48.960;9.108;2023-07-24T04:28:53;16.30;99.90
3086;DHT22;52812;48.960;9.108;2023-07-24T04:31:19;16.30;99.90
3086;DHT22;52812;48.960;9.108;2023-07-24T04:33:44;16.20;99.90
3086;DHT22;52812;48.960;9.108;2023-07-24T04:36:10;16.20;99.90
3086;DHT22;52812;48.960;9.108;2023-07-24T04:38:35;16.20;99.90
3086;DHT22;52812;48.960;9.108;2023-07-24T04:41:01;16.30;99.90
3086;DHT22;52812;48.960;9.108;2023-07-24T04:43:28;16.40;99.90
3086;DHT22;52812;48.960;9.108;2023-07-24T04:45:53;16.40;99.90
3086;DHT22;52812;48.960;9.108;2023-07-24T04:48:19;16.50;99.90
3086;DHT22;52812;48.960;9.108;2023-07-24T04:50:45;16.50;99.90
3086;DHT22;52812;48.960;9.108;2023-07-24T04:53:10;16.60;99.90
3086;DHT22;52812;48.960;9.108;2023-07-24T04:55:36;16.70;99.90
3086;DHT22;52812;48.960;9.108;2023-07-24T04:58:02;16.70;99.90
3086;DHT22;52812;48.960;9.108;2023-07-24T05:00:27;16.80;99.90
3086;DHT22;52812;48.960;9.108;2023-07-24T05:02:53;16.80;99.90
3086;DHT22;52812;48.960;9.108;2023-07-24T05:05:19;16.80;99.90
3086;DHT22;52812;48.960;9.108;2023-07-24T05:07:45;16.90;99.90
3086;DHT22;52812;48.960;9.108;2023-07-24T05:10:10;16.90;99.90
3086;DHT22;52812;48.960;9.108;2023-07-24T05:12:36;16.90;99.90
3086;DHT22;52812;48.960;9.108;2023-07-24T05:15:02;17.00;99.90
3086;DHT22;52812;48.960;9.108;2023-07-24T05:17:28;17.00;99.90
3086;DHT22;52812;48.960;9.108;2023-07-24T05:19:53;16.90;99.90
3086;DHT22;52812;48.960;9.108;2023-07-24T05:22:19;17.00;99.90
3086;DHT22;52812;48.960;9.108;2023-07-24T05:24:45;17.10;99.90
3086;DHT22;52812;48.960;9.108;2023-07-24T05:27:10;17.10;99.90
3086;DHT22;52812;48.960;9.108;2023-07-24T05:29:37;17.20;99.90
3086;DHT22;52812;48.960;9.108;2023-07-24T05:32:03;17.20;99.90
3086;DHT22;52812;48.960;9.108;2023-07-24T05:34:29;17.20;99.90
3086;DHT22;52812;48.960;9.108;2023-07-24T05:36:55;17.30;99.90
3086;DHT22;52812;48.960;9.108;2023-07-24T05:39:20;17.30;99.90
3086;DHT22;52812;48.960;9.108;2023-07-24T05:41:47;17.40;99.90
3086;DHT22;52812;48.960;9.108;2023-07-24T05:44:13;17.40;99.90
3086;DHT22;52812;48.960;9.108;2023-07-24T05:46:39;17.40;99.90
3086;DHT22;52812;48.960;9.108;2023-07-24T05:49:04;17.40;99.90
3086;DHT22;52812;48.960;9.108;2023-07-24T05:51:30;17.40;99.90
3086;DHT22;52812;48.960;9.108;2023-07-24T05:53:55;17.50;99.90
3086;DHT22;52812;48.960;9.108;2023-07-24T05:56:21;17.50;99.90
3086;DHT22;52812;48.960;9.108;2023-07-24T05:58:47;17.60;99.90
3086;DHT22;52812;48.960;9.108;2023-07-24T06:01:13;17.60;99.90
3086;DHT22;52812;48.960;9.108;2023-07-24T06:03:39;17.60;99.90
3086;DHT22;52812;48.960;9.108;2023-07-24T06:06:05;17.70;99.90
3086;DHT22;52812;48.960;9.108;2023-07-24T06:08:30;17.70;99.90
3086;DHT22;52812;48.960;9.108;2023-07-24T06:10:56;17.80;99.90
3086;DHT22;52812;48.960;9.108;2023-07-24T06:13:21;17.80;99.90
3086;DHT22;52812;48.960;9.108;2023-07-24T06:15:48;17.80;99.90
3086;DHT22;52812;48.960;9.108;2023-07-24T06:18:14;17.90;99.90
3086;DHT22;52812;48.960;9.108;2023-07-24T06:20:40;17.90;99.90
3086;DHT22;52812;48.960;9.108;2023-07-24T06:23:05;18.00;99.90
3086;DHT22;52812;48.960;9.108;2023-07-24T06:25:31;18.10;99.90
3086;DHT22;52812;48.960;9.108;2023-07-24T06:27:57;18.30;99.90
3086;DHT22;52812;48.960;9.108;2023-07-24T06:30:23;18.40;99.90
3086;DHT22;52812;48.960;9.108;2023-07-24T06:32:49;18.40;99.90
3086;DHT22;52812;48.960;9.108;2023-07-24T06:35:14;18.50;99.90
3086;DHT22;52812;48.960;9.108;2023-07-24T06:37:40;18.50;99.90
3086;DHT22;52812;48.960;9.108;2023-07-24T06:40:07;18.50;99.90
3086;DHT22;52812;48.960;9.108;2023-07-24T06:42:32;18.50;99.90
3086;DHT22;52812;48.960;9.108;2023-07-24T06:44:58;18.50;99.90
3086;DHT22;52812;48.960;9.108;2023-07-24T06:47:24;18.50;99.90
3086;DHT22;52812;48.960;9.108;2023-07-24T06:49:50;18.60;99.90
3086;DHT22;52812;48.960;9.108;2023-07-24T06:52:16;18.70;99.90
3086;DHT22;52812;48.960;9.108;2023-07-24T06:54:41;18.70;99.90
3086;DHT22;52812;48.960;9.108;2023-07-24T06:57:07;18.90;99.90
3086;DHT22;52812;48.960;9.108;2023-07-24T06:59:33;19.00;99.90
3086;DHT22;52812;48.960;9.108;2023-07-24T07:01:58;19.00;99.90
3086;DHT22;52812;48.960;9.108;2023-07-24T07:04:24;19.10;99.90
3086;DHT22;52812;48.960;9.108;2023-07-24T07:06:49;19.10;99.90
3086;DHT22;52812;48.960;9.108;2023-07-24T07:09:15;19.20;99.90
3086;DHT22;52812;48.960;9.108;2023-07-24T07:11:41;19.30;99.90
3086;DHT22;52812;48.960;9.108;2023-07-24T07:14:09;19.40;99.90
3086;DHT22;52812;48.960;9.108;2023-07-24T07:16:34;19.50;99.90
3086;DHT22;52812;48.960;9.108;2023-07-24T07:19:00;19.50;99.90
3086;DHT22;52812;48.960;9.108;2023-07-24T07:21:26;19.50;99.90
3086;DHT22;52812;48.960;9.108;2023-07-24T07:23:52;19.60;99.90
3086;DHT22;52812;48.960;9.108;2023-07-24T07:26:17;19.70;99.90
3086;DHT22;52812;48.960;9.108;2023-07-24T07:28:43;19.70;99.90
3086;DHT22;52812;48.960;9.108;2023-07-24T07:31:10;19.80;99.90
3086;DHT22;52812;48.960;9.108;2023-07-24T07:33:36;20.00;99.90
3086;DHT22;52812;48.960;9.108;2023-07-24T07:36:02;19.90;99.90
3086;DHT22;52812;48.960;9.108;2023-07-24T07:38:29;19.90;99.90
3086;DHT22;52812;48.960;9.108;2023-07-24T07:40:55;19.80;99.90
3086;DHT22;52812;48.960;9.108;2023-07-24T07:43:20;19.70;99.90
3086;DHT22;52812;48.960;9.108;2023-07-24T07:45:46;19.60;99.90
3086;DHT22;52812;48.960;9.108;2023-07-24T07:48:12;19.50;99.90
3086;DHT22;52812;48.960;9.108;2023-07-24T07:50:38;19.40;99.90
3086;DHT22;52812;48.960;9.108;2023-07-24T07:53:04;19.30;99.90
3086;DHT22;52812;48.960;9.108;2023-07-24T07:55:29;19.20;99.90
3086;DHT22;52812;48.960;9.108;2023-07-24T07:57:55;19.10;99.90
3086;DHT22;52812;48.960;9.108;2023-07-24T08:00:22;19.10;99.90
3086;DHT22;52812;48.960;9.108;2023-07-24T08:02:47;19.10;99.90
3086;DHT22;52812;48.960;9.108;2023-07-24T08:05:13;19.10;99.90
3086;DHT22;52812;48.960;9.108;2023-07-24T08:07:39;19.10;99.90
3086;DHT22;52812;48.960;9.108;2023-07-24T08:10:05;19.20;99.90
3086;DHT22;52812;48.960;9.108;2023-07-24T08:12:31;19.20;99.90
3086;DHT22;52812;48.960;9.108;2023-07-24T08:14:57;19.20;99.90
3086;DHT22;52812;48.960;9.108;2023-07-24T08:17:23;19.20;99.90
3086;DHT22;52812;48.960;9.108;2023-07-24T08:19:48;19.20;99.90
3086;DHT22;52812;48.960;9.108;2023-07-24T08:22:14;19.30;99.90
3086;DHT22;52812;48.960;9.108;2023-07-24T08:24:39;19.20;99.90
3086;DHT22;52812;48.960;9.108;2023-07-24T08:27:05;19.20;99.90
3086;DHT22;52812;48.960;9.108;2023-07-24T08:29:31;19.20;99.90
3086;DHT22;52812;48.960;9.108;2023-07-24T08:31:56;19.10;99.90
3086;DHT22;52812;48.960;9.108;2023-07-24T08:34:22;19.00;99.90
3086;DHT22;52812;48.960;9.108;2023-07-24T08:36:48;19.00;99.90
3086;DHT22;52812;48.960;9.108;2023-07-24T08:39:13;19.00;99.90
3086;DHT22;52812;48.960;9.108;2023-07-24T08:41:39;19.10;99.90
3086;DHT22;52812;48.960;9.108;2023-07-24T08:44:06;19.10;99.90
3086;DHT22;52812;48.960;9.108;2023-07-24T08:46:36;19.20;99.90
3086;DHT22;52812;48.960;9.108;2023-07-24T08:49:02;19.30;99.90
3086;DHT22;52812;48.960;9.108;2023-07-24T08:51:29;19.30;99.90
3086;DHT22;52812;48.960;9.108;2023-07-24T08:53:56;19.30;99.90
3086;DHT22;52812;48.960;9.108;2023-07-24T08:56:23;19.40;99.90
3086;DHT22;52812;48.960;9.108;2023-07-24T08:58:48;19.50;99.90
3086;DHT22;52812;48.960;9.108;2023-07-24T09:01:14;19.60;99.90
3086;DHT22;52812;48.960;9.108;2023-07-24T09:03:40;19.70;99.90
3086;DHT22;52812;48.960;9.108;2023-07-24T09:06:06;19.70;99.90
3086;DHT22;52812;48.960;9.108;2023-07-24T09:08:39;19.80;99.90
3086;DHT22;52812;48.960;9.108;2023-07-24T09:11:06;19.90;99.90
3086;DHT22;52812;48.960;9.108;2023-07-24T09:13:32;20.10;99.90
3086;DHT22;52812;48.960;9.108;2023-07-24T09:15:59;20.40;99.90
3086;DHT22;52812;48.960;9.108;2023-07-24T09:18:25;20.60;99.90
3086;DHT22;52812;48.960;9.108;2023-07-24T09:20:50;20.80;99.90
3086;DHT22;52812;48.960;9.108;2023-07-24T09:23:28;21.00;99.90
3086;DHT22;52812;48.960;9.108;2023-07-24T09:25:54;21.00;99.90
3086;DHT22;52812;48.960;9.108;2023-07-24T09:28:19;21.20;99.90
3086;DHT22;52812;48.960;9.108;2023-07-24T09:30:56;21.40;99.90
3086;DHT22;52812;48.960;9.108;2023-07-24T09:33:24;21.70;99.90
3086;DHT22;52812;48.960;9.108;2023-07-24T09:35:59;21.80;99.90
3086;DHT22;52812;48.960;9.108;2023-07-24T09:38:25;22.00;99.90
3086;DHT22;52812;48.960;9.108;2023-07-24T09:40:53;22.00;99.90
3086;DHT22;52812;48.960;9.108;2023-07-24T09:43:24;22.10;99.90
3086;DHT22;52812;48.960;9.108;2023-07-24T09:45:51;22.30;99.90
3086;DHT22;52812;48.960;9.108;2023-07-24T09:48:18;22.30;99.90
3086;DHT22;52812;48.960;9.108;2023-07-24T09:50:46;22.50;99.90
3086;DHT22;52812;48.960;9.108;2023-07-24T09:53:20;22.50;99.90
3086;DHT22;52812;48.960;9.108;2023-07-24T09:56:01;22.60;99.90
3086;DHT22;52812;48.960;9.108;2023-07-24T09:58:26;22.50;99.90
3086;DHT22;52812;48.960;9.108;2023-07-24T10:00:53;22.40;99.90
3086;DHT22;52812;48.960;9.108;2023-07-24T10:03:21;22.20;99.90
3086;DHT22;52812;48.960;9.108;2023-07-24T10:05:47;22.00;99.90
3086;DHT22;52812;48.960;9.108;2023-07-24T10:08:18;21.90;99.90
3086;DHT22;52812;48.960;9.108;2023-07-24T10:10:44;21.80;99.90
3086;DHT22;52812;48.960;9.108;2023-07-24T10:13:11;21.70;99.90
3086;DHT22;52812;48.960;9.108;2023-07-24T10:15:41;21.60;99.90
3086;DHT22;52812;48.960;9.108;2023-07-24T10:18:08;21.50;99.90
3086;DHT22;52812;48.960;9.108;2023-07-24T10:20:41;21.40;99.90
3086;DHT22;52812;48.960;9.108;2023-07-24T10:23:09;21.30;99.90
3086;DHT22;52812;48.960;9.108;2023-07-24T10:25:37;21.20;99.90
3086;DHT22;52812;48.960;9.108;2023-07-24T10:28:07;21.10;99.90
3086;DHT22;52812;48.960;9.108;2023-07-24T10:30:36;21.10;99.90
3086;DHT22;52812;48.960;9.108;2023-07-24T10:33:10;21.00;99.90
3086;DHT22;52812;48.960;9.108;2023-07-24T10:35:47;21.00;99.90
3086;DHT22;52812;48.960;9.108;2023-07-24T10:38:14;20.90;99.90
3086;DHT22;52812;48.960;9.108;2023-07-24T10:40:41;20.80;99.90
3086;DHT22;52812;48.960;9.108;2023-07-24T10:43:08;20.70;99.90
3086;DHT22;52812;48.960;9.108;2023-07-24T10:48:13;20.60;99.90
3086;DHT22;52812;48.960;9.108;2023-07-24T10:50:44;20.60;99.90
3086;DHT22;52812;48.960;9.108;2023-07-24T10:53:11;20.40;99.90
3086;DHT22;52812;48.960;9.108;2023-07-24T10:55:37;20.40;99.90
3086;DHT22;52812;48.960;9.108;2023-07-24T10:58:02;20.30;99.90
3086;DHT22;52812;48.960;9.108;2023-07-24T11:00:28;20.20;99.90
3086;DHT22;52812;48.960;9.108;2023-07-24T11:02:54;20.10;99.90
3086;DHT22;52812;48.960;9.108;2023-07-24T11:05:23;20.00;99.90
3086;DHT22;52812;48.960;9.108;2023-07-24T11:07:50;20.00;99.90
3086;DHT22;52812;48.960;9.108;2023-07-24T11:10:20;19.80;99.90
3086;DHT22;52812;48.960;9.108;2023-07-24T11:12:46;19.80;99.90
3086;DHT22;52812;48.960;9.108;2023-07-24T11:15:13;19.80;99.90
3086;DHT22;52812;48.960;9.108;2023-07-24T11:17:41;19.80;99.90
3086;DHT22;52812;48.960;9.108;2023-07-24T11:20:11;19.80;99.90
3086;DHT22;52812;48.960;9.108;2023-07-24T11:22:38;19.80;99.90
3086;DHT22;52812;48.960;9.108;2023-07-24T11:25:05;19.80;99.90
3086;DHT22;52812;48.960;9.108;2023-07-24T11:27:32;19.80;99.90
3086;DHT22;52812;48.960;9.108;2023-07-24T11:29:57;19.90;99.90
3086;DHT22;52812;48.960;9.108;2023-07-24T11:32:23;19.90;99.90
3086;DHT22;52812;48.960;9.108;2023-07-24T11:34:49;20.00;99.90
3086;DHT22;52812;48.960;9.108;2023-07-24T11:37:16;20.10;99.90
3086;DHT22;52812;48.960;9.108;2023-07-24T11:39:41;20.10;99.90
3086;DHT22;52812;48.960;9.108;2023-07-24T11:42:07;20.10;99.90
3086;DHT22;52812;48.960;9.108;2023-07-24T11:44:33;20.00;99.90
3086;DHT22;52812;48.960;9.108;2023-07-24T11:47:06;20.00;99.90
3086;DHT22;52812;48.960;9.108;2023-07-24T11:49:32;20.00;99.90
3086;DHT22;52812;48.960;9.108;2023-07-24T11:52:05;20.10;99.90
3086;DHT22;52812;48.960;9.108;2023-07-24T11:54:34;20.50;99.90
3086;DHT22;52812;48.960;9.108;2023-07-24T11:57:00;20.90;99.90
3086;DHT22;52812;48.960;9.108;2023-07-24T11:59:26;21.20;99.90
3086;DHT22;52812;48.960;9.108;2023-07-24T12:01:52;21.40;99.90
3086;DHT22;52812;48.960;9.108;2023-07-24T12:04:18;21.60;99.90
3086;DHT22;52812;48.960;9.108;2023-07-24T12:06:44;21.60;99.90
3086;DHT22;52812;48.960;9.108;2023-07-24T12:09:13;21.40;99.90
3086;DHT22;52812;48.960;9.108;2023-07-24T12:11:43;21.30;99.90
3086;DHT22;52812;48.960;9.108;2023-07-24T12:14:09;21.10;99.90
3086;DHT22;52812;48.960;9.108;2023-07-24T12:16:38;21.00;99.90
3086;DHT22;52812;48.960;9.108;2023-07-24T12:19:04;21.00;99.90
3086;DHT22;52812;48.960;9.108;2023-07-24T12:21:29;21.00;99.90
3086;DHT22;52812;48.960;9.108;2023-07-24T12:23:55;20.80;99.90
3086;DHT22;52812;48.960;9.108;2023-07-24T12:26:21;20.60;99.90
3086;DHT22;52812;48.960;9.108;2023-07-24T12:28:47;20.40;99.90
3086;DHT22;52812;48.960;9.108;2023-07-24T12:31:13;20.30;99.90
3086;DHT22;52812;48.960;9.108;2023-07-24T12:33:38;20.20;99.90
3086;DHT22;52812;48.960;9.108;2023-07-24T12:36:04;20.30;99.90
3086;DHT22;52812;48.960;9.108;2023-07-24T12:38:30;20.30;99.90
3086;DHT22;52812;48.960;9.108;2023-07-24T12:40:55;20.20;99.90
3086;DHT22;52812;48.960;9.108;2023-07-24T12:43:21;20.20;99.90
3086;DHT22;52812;48.960;9.108;2023-07-24T12:45:47;20.10;99.90
3086;DHT22;52812;48.960;9.108;2023-07-24T12:48:12;20.10;99.90
3086;DHT22;52812;48.960;9.108;2023-07-24T12:50:38;20.10;99.90
3086;DHT22;52812;48.960;9.108;2023-07-24T12:53:04;20.00;99.90
3086;DHT22;52812;48.960;9.108;2023-07-24T12:55:29;20.00;99.90
3086;DHT22;52812;48.960;9.108;2023-07-24T12:57:55;19.90;99.90
3086;DHT22;52812;48.960;9.108;2023-07-24T13:00:21;19.90;99.90
3086;DHT22;52812;48.960;9.108;2023-07-24T13:02:47;19.80;99.90
3086;DHT22;52812;48.960;9.108;2023-07-24T13:05:13;19.80;99.90
3086;DHT22;52812;48.960;9.108;2023-07-24T13:07:38;19.80;99.90
3086;DHT22;52812;48.960;9.108;2023-07-24T13:10:05;20.00;99.90
3086;DHT22;52812;48.960;9.108;2023-07-24T13:12:30;20.00;99.90
3086;DHT22;52812;48.960;9.108;2023-07-24T13:14:56;20.00;99.90
3086;DHT22;52812;48.960;9.108;2023-07-24T13:17:22;20.00;99.90
3086;DHT22;52812;48.960;9.108;2023-07-24T13:19:48;20.10;99.90
3086;DHT22;52812;48.960;9.108;2023-07-24T13:22:13;20.10;99.90
3086;DHT22;52812;48.960;9.108;2023-07-24T13:24:39;20.00;99.90
3086;DHT22;52812;48.960;9.108;2023-07-24T13:27:05;20.10;99.90
3086;DHT22;52812;48.960;9.108;2023-07-24T13:29:31;20.10;99.90
3086;DHT22;52812;48.960;9.108;2023-07-24T13:31:56;20.20;99.90
3086;DHT22;52812;48.960;9.108;2023-07-24T13:34:23;20.30;99.90
3086;DHT22;52812;48.960;9.108;2023-07-24T13:36:49;20.30;99.90
3086;DHT22;52812;48.960;9.108;2023-07-24T13:39:15;20.30;99.90
3086;DHT22;52812;48.960;9.108;2023-07-24T13:41:41;20.30;99.90
3086;DHT22;52812;48.960;9.108;2023-07-24T13:44:07;20.40;99.90
3086;DHT22;52812;48.960;9.108;2023-07-24T13:46:32;20.40;99.90
3086;DHT22;52812;48.960;9.108;2023-07-24T13:48:58;20.60;99.90
3086;DHT22;52812;48.960;9.108;2023-07-24T13:51:24;20.80;99.90
3086;DHT22;52812;48.960;9.108;2023-07-24T13:53:49;20.80;99.90
3086;DHT22;52812;48.960;9.108;2023-07-24T13:56:17;20.90;99.90
3086;DHT22;52812;48.960;9.108;2023-07-24T13:58:44;21.00;99.90
3086;DHT22;52812;48.960;9.108;2023-07-24T14:01:10;21.20;99.90
3086;DHT22;52812;48.960;9.108;2023-07-24T14:03:35;21.40;99.90
3086;DHT22;52812;48.960;9.108;2023-07-24T14:06:01;21.70;99.90
3086;DHT22;52812;48.960;9.108;2023-07-24T14:08:27;21.90;99.90
3086;DHT22;52812;48.960;9.108;2023-07-24T14:10:53;22.10;99.90
3086;DHT22;52812;48.960;9.108;2023-07-24T14:13:18;22.30;99.90
3086;DHT22;52812;48.960;9.108;2023-07-24T14:15:44;22.30;99.90
3086;DHT22;52812;48.960;9.108;2023-07-24T14:18:10;22.30;99.90
3086;DHT22;52812;48.960;9.108;2023-07-24T14:20:35;22.40;99.90
3086;DHT22;52812;48.960;9.108;2023-07-24T14:23:02;22.40;99.90
3086;DHT22;52812;48.960;9.108;2023-07-24T14:25:28;22.40;99.90
3086;DHT22;52812;48.960;9.108;2023-07-24T14:27:53;22.40;99.90
3086;DHT22;52812;48.960;9.108;2023-07-24T14:30:20;22.40;99.90
3086;DHT22;52812;48.960;9.108;2023-07-24T14:32:45;22.60;99.90
3086;DHT22;52812;48.960;9.108;2023-07-24T14:35:11;22.60;99.90
3086;DHT22;52812;48.960;9.108;2023-07-24T14:37:37;22.60;99.90
3086;DHT22;52812;48.960;9.108;2023-07-24T14:40:03;22.70;99.90
3086;DHT22;52812;48.960;9.108;2023-07-24T14:42:29;22.70;99.90
3086;DHT22;52812;48.960;9.108;2023-07-24T14:44:54;22.90;99.90
3086;DHT22;52812;48.960;9.108;2023-07-24T14:47:20;23.00;99.90
3086;DHT22;52812;48.960;9.108;2023-07-24T14:49:46;23.00;99.90
3086;DHT22;52812;48.960;9.108;2023-07-24T14:52:11;23.10;99.90
3086;DHT22;52812;48.960;9.108;2023-07-24T14:54:37;23.20;99.90
3086;DHT22;52812;48.960;9.108;2023-07-24T14:57:03;23.30;99.90
3086;DHT22;52812;48.960;9.108;2023-07-24T14:59:28;23.30;99.90
3086;DHT22;52812;48.960;9.108;2023-07-24T15:01:54;23.30;99.90
3086;DHT22;52812;48.960;9.108;2023-07-24T15:04:20;23.40;99.90
3086;DHT22;52812;48.960;9.108;2023-07-24T15:06:45;23.40;99.90
3086;DHT22;52812;48.960;9.108;2023-07-24T15:09:11;23.40;99.90
3086;DHT22;52812;48.960;9.108;2023-07-24T15:11:37;23.50;99.90
3086;DHT22;52812;48.960;9.108;2023-07-24T15:14:02;23.50;99.90
3086;DHT22;52812;48.960;9.108;2023-07-24T15:16:28;23.60;99.90
3086;DHT22;52812;48.960;9.108;2023-07-24T15:18:53;23.70;99.90
3086;DHT22;52812;48.960;9.108;2023-07-24T15:21:19;23.70;99.90
3086;DHT22;52812;48.960;9.108;2023-07-24T15:23:45;23.80;99.90
3086;DHT22;52812;48.960;9.108;2023-07-24T15:26:17;23.90;99.90
3086;DHT22;52812;48.960;9.108;2023-07-24T15:28:42;24.10;99.90
3086;DHT22;52812;48.960;9.108;2023-07-24T15:31:09;24.10;99.90
3086;DHT22;52812;48.960;9.108;2023-07-24T15:33:35;24.00;99.90
3086;DHT22;52812;48.960;9.108;2023-07-24T15:36:01;23.80;99.90
3086;DHT22;52812;48.960;9.108;2023-07-24T15:38:26;23.60;99.90
3086;DHT22;52812;48.960;9.108;2023-07-24T15:40:52;23.40;99.90
3086;DHT22;52812;48.960;9.108;2023-07-24T15:43:17;23.10;99.90